Time;durP1;ratioP1;P1;durP2;ratioP2;P2;SDS_P1;SDS_P2;PMS_P1;PMS_P2;Temp;Humidity;BMP_temperature;BMP_pressure;BME280_temperature;BME280_humidity;BME280_pressure;Samples;Min_cycle;Max_cycle;Signal;HPM_P1;HPM_P2
2024/01/13 00:02:00;;;;;;;26.77;10.32;;;;;;;0.60;78.56;98725.59;5305327;27;20026;-85
2024/01/13 00:04:28;;;;;;;25.75;10.10;;;;;;;0.77;77.86;98717.25;5305523;27;20061;-85
2024/01/13 00:06:56;;;;;;;28.15;11.27;;;;;;;0.65;78.06;98716.31;5303870;27;20057;-84
2024/01/13 00:09:23;;;;;;;31.50;11.30;;;;;;;0.25;79.98;98711.78;5304117;27;20033;-85
2024/01/13 00:11:51;;;;;;;33.10;11.35;;;;;;;0.29;79.69;98697.41;5303368;27;20041;-85
2024/01/13 00:14:19;;;;;;;30.75;12.27;;;;;;;0.15;80.52;98702.38;5303518;27;20026;-84
2024/01/13 00:16:49;;;;;;;35.10;12.95;;;;;;;0.09;81.06;98711.59;5304110;27;20069;-84
2024/01/13 00:19:16;;;;;;;33.88;11.90;;;;;;;-0.01;81.97;98698.81;5303974;27;20057;-85
2024/01/13 00:21:45;;;;;;;35.95;12.95;;;;;;;0.10;81.37;98711.59;5303620;27;20076;-84
2024/01/13 00:24:13;;;;;;;34.25;12.57;;;;;;;0.11;81.16;98703.19;5303991;27;20029;-84
2024/01/13 00:26:42;;;;;;;28.90;12.02;;;;;;;0.20;80.81;98708.31;5304522;27;20479;-84
2024/01/13 00:29:11;;;;;;;30.17;11.85;;;;;;;0.31;79.49;98710.94;5303768;27;20076;-84
2024/01/13 00:31:40;;;;;;;31.90;12.82;;;;;;;0.36;78.99;98706.78;5303766;27;20501;-85
2024/01/13 00:34:07;;;;;;;33.15;13.77;;;;;;;0.63;78.40;98715.44;5304112;27;20061;-85
2024/01/13 00:36:37;;;;;;;34.90;12.73;;;;;;;0.67;78.04;98707.88;5303718;27;20317;-85
2024/01/13 00:39:05;;;;;;;31.67;12.57;;;;;;;0.93;76.16;98704.66;5301705;27;20056;-84
2024/01/13 00:41:35;;;;;;;34.00;13.60;;;;;;;0.61;77.67;98706.97;5303136;27;20048;-84
2024/01/13 00:44:03;;;;;;;35.00;12.68;;;;;;;0.75;75.98;98697.78;5303134;27;20388;-85
2024/01/13 00:46:32;;;;;;;39.03;15.80;;;;;;;0.48;78.24;98706.03;5304334;27;20058;-85
2024/01/13 00:49:00;;;;;;;42.62;16.17;;;;;;;0.40;78.74;98702.56;5303488;27;20053;-84
2024/01/13 00:51:30;;;;;;;45.40;15.57;;;;;;;0.55;78.10;98688.31;5303627;27;20045;-84
2024/01/13 00:53:57;;;;;;;41.78;16.15;;;;;;;0.37;78.97;98687.31;5303965;27;20087;-84
2024/01/13 00:56:26;;;;;;;41.63;16.33;;;;;;;0.52;78.18;98692.50;5303463;27;20057;-84
2024/01/13 00:58:54;;;;;;;37.92;15.75;;;;;;;0.48;77.08;98689.09;5302820;27;20079;-85
2024/01/13 01:01:22;;;;;;;46.47;17.45;;;;;;;-0.37;81.73;98695.91;5304116;27;20096;-84
2024/01/13 01:03:50;;;;;;;43.60;16.90;;;;;;;0.11;80.38;98693.03;5303536;27;20485;-85
2024/01/13 01:06:19;;;;;;;41.10;15.25;;;;;;;-0.01;80.65;98697.97;5303870;27;20084;-85
2024/01/13 01:08:48;;;;;;;38.80;16.37;;;;;;;0.34;79.03;98702.53;5301873;27;20067;-85
2024/01/13 01:11:15;;;;;;;51.10;16.77;;;;;;;0.68;77.00;98699.41;5303242;27;20060;-85
2024/01/13 01:13:45;;;;;;;46.03;15.98;;;;;;;0.33;78.27;98705.91;5303916;27;20132;-85
2024/01/13 01:16:13;;;;;;;37.05;15.27;;;;;;;0.55;78.06;98711.19;5305063;27;20132;-84
2024/01/13 01:18:42;;;;;;;36.78;15.23;;;;;;;0.18;78.52;98697.31;5305427;27;20075;-84
2024/01/13 01:21:14;;;;;;;37.42;15.07;;;;;;;0.33;77.89;98699.16;5304280;27;20535;-85
2024/01/13 01:23:46;;;;;;;43.97;16.90;;;;;;;0.26;78.71;98697.37;5305215;27;20370;-84
2024/01/13 01:26:15;;;;;;;36.10;14.13;;;;;;;-0.22;81.17;98696.06;5305490;27;20126;-84
2024/01/13 01:28:42;;;;;;;40.72;15.95;;;;;;;0.16;79.72;98700.69;5306127;27;20068;-85
2024/01/13 01:31:11;;;;;;;46.55;16.50;;;;;;;-0.09;80.40;98689.47;5304394;27;20106;-84
2024/01/13 01:33:39;;;;;;;40.58;15.20;;;;;;;0.05;80.33;98697.19;5304690;27;20171;-85
2024/01/13 01:36:08;;;;;;;38.40;15.55;;;;;;;-0.28;81.46;98700.25;5304412;27;20171;-85
2024/01/13 01:38:37;;;;;;;43.72;14.90;;;;;;;-0.34;82.66;98706.94;5302937;27;20056;-84
2024/01/13 01:41:13;;;;;;;34.80;13.98;;;;;;;0.21;79.23;98707.50;5304457;27;20140;-84
2024/01/13 01:43:43;;;;;;;41.13;14.68;;;;;;;0.10;79.34;98704.00;5303322;27;20065;-84
2024/01/13 01:46:14;;;;;;;35.83;14.05;;;;;;;0.32;77.99;98701.66;5303866;27;20064;-84
2024/01/13 01:48:43;;;;;;;33.22;13.15;;;;;;;0.36;78.28;98696.63;5303797;27;20064;-85
2024/01/13 01:51:16;;;;;;;33.22;14.15;;;;;;;0.74;75.62;98696.03;5305761;27;20045;-85
2024/01/13 01:53:45;;;;;;;31.45;13.43;;;;;;;0.49;76.76;98692.50;5304356;27;20033;-85
2024/01/13 01:56:17;;;;;;;39.78;13.75;;;;;;;0.41;77.35;98694.12;5306667;27;20126;-85
2024/01/13 01:58:44;;;;;;;35.30;14.00;;;;;;;0.27;78.70;98694.00;5305676;27;20066;-84
2024/01/13 02:01:14;;;;;;;34.38;13.00;;;;;;;0.37;78.29;98689.87;5307207;27;20021;-85
2024/01/13 02:03:43;;;;;;;36.58;13.48;;;;;;;0.41;78.60;98676.34;5305468;27;20783;-85
2024/01/13 02:06:12;;;;;;;34.80;13.52;;;;;;;0.45;78.00;98676.41;5305565;27;20106;-85
2024/01/13 02:08:40;;;;;;;32.35;13.70;;;;;;;0.38;78.46;98676.31;5307971;27;20095;-85
2024/01/13 02:11:10;;;;;;;35.03;13.23;;;;;;;0.36;79.10;98675.47;5307625;27;20073;-85
2024/01/13 02:13:43;;;;;;;33.83;12.18;;;;;;;0.90;76.55;98675.00;5307622;27;20068;-85
2024/01/13 02:16:15;;;;;;;31.50;11.95;;;;;;;0.40;77.73;98670.41;5306768;27;20062;-84
2024/01/13 02:18:44;;;;;;;32.35;12.00;;;;;;;0.70;77.38;98669.78;5307471;27;20077;-85
2024/01/13 02:21:13;;;;;;;32.97;11.82;;;;;;;0.86;75.41;98660.59;5307418;27;20169;-85
2024/01/13 02:23:43;;;;;;;30.75;12.93;;;;;;;0.50;76.83;98653.56;5307924;27;20057;-85
2024/01/13 02:26:13;;;;;;;28.35;12.25;;;;;;;0.37;77.55;98657.72;5307068;27;20135;-85
2024/01/13 02:28:43;;;;;;;27.05;12.32;;;;;;;0.61;77.20;98656.19;5306352;27;20071;-85
2024/01/13 02:31:16;;;;;;;25.70;10.50;;;;;;;0.78;76.83;98658.00;5306270;27;20041;-85
2024/01/13 02:33:50;;;;;;;31.10;11.50;;;;;;;0.73;76.51;98646.09;5306721;27;20111;-84
2024/01/13 02:36:20;;;;;;;32.92;12.25;;;;;;;0.88;75.75;98638.56;5307027;27;20068;-85
2024/01/13 02:38:48;;;;;;;30.40;12.05;;;;;;;0.62;76.86;98638.41;5306682;27;20419;-84
2024/01/13 02:41:16;;;;;;;28.05;11.07;;;;;;;0.79;74.96;98625.81;5304863;27;20050;-84
2024/01/13 02:43:45;;;;;;;26.00;10.38;;;;;;;0.78;76.42;98624.13;5305621;27;20060;-85
2024/01/13 02:46:14;;;;;;;30.00;11.23;;;;;;;0.83;74.91;98619.91;5304549;27;20053;-85
2024/01/13 02:48:51;;;;;;;27.05;10.43;;;;;;;0.97;74.38;98623.38;5303931;27;20144;-85
2024/01/13 02:51:19;;;;;;;30.40;11.45;;;;;;;0.68;75.19;98618.12;5302396;27;20065;-85
2024/01/13 02:53:47;;;;;;;30.77;11.23;;;;;;;0.75;74.91;98619.03;5303541;27;20065;-85
2024/01/13 02:56:17;;;;;;;24.23;9.80;;;;;;;0.45;75.62;98612.94;5303028;27;20072;-84
2024/01/13 02:58:46;;;;;;;28.45;11.32;;;;;;;0.71;74.51;98609.69;5303880;27;20061;-84
2024/01/13 03:01:17;;;;;;;22.90;10.68;;;;;;;0.05;77.36;98616.00;5303483;27;20087;-85
2024/01/13 03:03:49;;;;;;;25.30;10.55;;;;;;;-0.26;80.01;98609.81;5303332;27;20065;-85
2024/01/13 03:06:21;;;;;;;26.60;10.15;;;;;;;-0.31;80.30;98597.97;5303525;27;20399;-84
2024/01/13 03:08:51;;;;;;;26.62;10.95;;;;;;;0.10;78.52;98605.03;5301455;27;20049;-84
2024/01/13 03:11:20;;;;;;;26.12;9.93;;;;;;;-0.18;79.23;98603.12;5302992;27;20049;-85
2024/01/13 03:13:53;;;;;;;25.62;10.00;;;;;;;0.06;78.58;98593.19;5303196;27;20086;-85
2024/01/13 03:16:21;;;;;;;26.35;9.50;;;;;;;0.40;76.58;98591.72;5302331;27;20079;-85
2024/01/13 03:18:50;;;;;;;27.77;9.98;;;;;;;0.16;77.52;98599.19;5303367;27;20053;-84
2024/01/13 03:21:19;;;;;;;23.98;10.65;;;;;;;-0.12;78.45;98593.03;5302934;27;20052;-85
2024/01/13 03:23:49;;;;;;;25.17;9.48;;;;;;;0.15;78.32;98587.34;5302688;27;20062;-84
2024/01/13 03:26:19;;;;;;;25.50;9.75;;;;;;;0.34;77.71;98585.78;5303094;27;20115;-85
2024/01/13 03:28:47;;;;;;;21.55;9.30;;;;;;;0.35;76.63;98585.78;5302970;27;20076;-85
2024/01/13 03:31:17;;;;;;;24.58;10.05;;;;;;;-0.53;80.62;98583.37;5302373;27;20049;-84
2024/01/13 03:33:47;;;;;;;24.35;9.77;;;;;;;-0.19;80.37;98578.59;5301657;27;20079;-85
2024/01/13 03:36:16;;;;;;;26.87;9.40;;;;;;;-0.19;80.68;98578.59;5301277;27;20064;-85
2024/01/13 03:38:45;;;;;;;24.23;9.93;;;;;;;-0.23;80.55;98571.78;5301152;27;20070;-85
2024/01/13 03:41:17;;;;;;;25.92;10.63;;;;;;;-0.31;81.35;98577.66;5302965;27;20057;-85
2024/01/13 03:43:46;;;;;;;27.00;9.40;;;;;;;-0.13;80.60;98579.50;5302432;27;20061;-84
2024/01/13 03:46:16;;;;;;;25.00;10.05;;;;;;;-0.25;80.81;98587.00;5303548;27;20057;-84
2024/01/13 03:48:43;;;;;;;24.27;8.93;;;;;;;-0.57;82.85;98588.38;5304110;27;20118;-85
2024/01/13 03:51:13;;;;;;;23.58;10.13;;;;;;;-0.62;84.25;98583.28;5303181;27;20070;-85
2024/01/13 03:53:40;;;;;;;29.25;10.65;;;;;;;-0.07;81.64;98583.78;5303548;27;20122;-85
2024/01/13 03:56:10;;;;;;;27.13;10.30;;;;;;;-0.13;81.45;98584.56;5303903;27;20064;-85
2024/01/13 03:58:38;;;;;;;30.10;11.43;;;;;;;0.18;80.31;98587.34;5303491;27;20068;-84
2024/01/13 04:01:08;;;;;;;25.10;10.30;;;;;;;0.24;79.62;98588.25;5302977;27;20063;-85
2024/01/13 04:03:37;;;;;;;27.70;11.75;;;;;;;0.33;80.19;98590.00;5303243;27;20136;-85
2024/01/13 04:06:05;;;;;;;25.88;10.07;;;;;;;0.39;79.53;98590.03;5302238;27;20057;-84
2024/01/13 04:08:34;;;;;;;29.48;11.20;;;;;;;0.46;77.97;98580.78;5305055;27;20028;-85
2024/01/13 04:11:10;;;;;;;27.60;11.35;;;;;;;0.22;78.52;98589.09;5304231;27;20045;-85
2024/01/13 04:13:38;;;;;;;30.62;11.27;;;;;;;0.34;78.96;98593.38;5303846;27;20082;-84
2024/01/13 04:16:07;;;;;;;25.58;10.25;;;;;;;0.52;78.42;98580.78;5303936;27;20051;-84
2024/01/13 04:18:36;;;;;;;33.03;11.43;;;;;;;0.67;77.28;98582.56;5304638;27;20443;-84
2024/01/13 04:21:05;;;;;;;29.20;11.07;;;;;;;0.54;78.11;98579.97;5297889;27;148963;-85
2024/01/13 04:23:48;;;;;;;31.33;11.18;;;;;;;0.30;79.09;98577.28;5303326;27;20107;-84
2024/01/13 04:26:17;;;;;;;28.38;11.32;;;;;;;0.46;77.67;98571.47;5302880;27;20061;-84
2024/01/13 04:28:45;;;;;;;29.00;11.12;;;;;;;0.37;77.91;98568.87;5302101;27;20080;-84
2024/01/13 04:31:14;;;;;;;31.52;12.02;;;;;;;0.24;79.20;98572.16;5304276;27;20108;-84
2024/01/13 04:33:42;;;;;;;27.85;10.55;;;;;;;0.15;79.76;98572.94;5303074;27;20057;-84
2024/01/13 04:36:13;;;;;;;31.33;12.30;;;;;;;0.11;80.14;98575.47;5303096;27;20073;-84
2024/01/13 04:38:41;;;;;;;32.83;11.23;;;;;;;-0.26;81.69;98570.09;5301701;27;20128;-85
2024/01/13 04:41:09;;;;;;;26.10;11.07;;;;;;;-0.16;82.04;98563.41;5302842;27;20640;-84
2024/01/13 04:43:40;;;;;;;31.23;12.30;;;;;;;0.29;80.23;98561.19;5302736;27;20057;-85
2024/01/13 04:46:10;;;;;;;32.25;11.82;;;;;;;0.42;79.20;98563.81;5303258;27;20047;-84
2024/01/13 04:48:39;;;;;;;33.67;11.65;;;;;;;0.13;80.52;98568.72;5302155;27;20057;-84
2024/01/13 04:51:07;;;;;;;35.03;12.93;;;;;;;0.27;80.11;98574.72;5304065;27;20132;-84
2024/01/13 04:53:35;;;;;;;30.95;12.27;;;;;;;0.58;79.00;98565.59;5304523;27;20053;-84
2024/01/13 04:56:05;;;;;;;29.75;11.93;;;;;;;0.23;80.14;98562.88;5304287;27;20147;-84
2024/01/13 04:58:35;;;;;;;30.50;12.07;;;;;;;0.66;78.44;98556.34;5303404;27;20061;-84
2024/01/13 05:01:04;;;;;;;29.58;11.48;;;;;;;0.40;79.46;98561.25;5302860;27;20087;-84
2024/01/13 05:03:32;;;;;;;32.42;12.43;;;;;;;-0.11;81.27;98560.06;5303272;27;20108;-84
2024/01/13 05:06:00;;;;;;;28.80;11.10;;;;;;;0.12;81.11;98560.25;5303887;27;20129;-84
2024/01/13 05:08:27;;;;;;;31.42;12.80;;;;;;;0.17;80.89;98568.72;5302381;27;20067;-84
2024/01/13 05:10:57;;;;;;;33.15;12.93;;;;;;;0.34;79.52;98558.69;5303305;27;20057;-84
2024/01/13 05:13:25;;;;;;;31.25;13.23;;;;;;;0.23;80.03;98565.41;5303691;27;20428;-84
2024/01/13 05:15:53;;;;;;;32.83;13.57;;;;;;;0.31;80.21;98555.28;5303880;27;20093;-84
2024/01/13 05:18:22;;;;;;;32.95;12.98;;;;;;;0.04;81.34;98558.50;5303220;27;20475;-84
2024/01/13 05:20:51;;;;;;;35.38;12.27;;;;;;;-0.23;82.52;98561.66;5303888;27;20041;-84
2024/01/13 05:23:19;;;;;;;31.08;12.90;;;;;;;-0.08;82.14;98564.31;5301674;27;20057;-84
2024/01/13 05:25:47;;;;;;;32.45;11.55;;;;;;;-0.02;81.41;98560.13;5302975;27;20071;-84
2024/01/13 05:28:16;;;;;;;35.88;13.25;;;;;;;0.27;79.63;98559.50;5303304;27;20057;-84
2024/01/13 05:30:45;;;;;;;31.90;12.55;;;;;;;0.31;79.29;98557.81;5300767;27;20083;-84
2024/01/13 05:33:15;;;;;;;33.88;12.40;;;;;;;0.28;79.30;98564.56;5302733;27;20058;-84
2024/01/13 05:35:43;;;;;;;32.58;12.73;;;;;;;0.61;78.23;98560.53;5303004;27;20110;-84
2024/01/13 05:38:11;;;;;;;29.75;11.82;;;;;;;0.37;79.33;98565.47;5303289;27;20095;-84
2024/01/13 05:40:41;;;;;;;32.70;11.73;;;;;;;0.39;79.36;98557.03;5302310;27;20059;-85
2024/01/13 05:43:08;;;;;;;30.90;11.57;;;;;;;0.46;78.71;98565.53;5302288;27;20058;-85
2024/01/13 05:45:36;;;;;;;32.63;12.25;;;;;;;0.13;80.61;98567.03;5302834;27;20068;-85
2024/01/13 05:48:05;;;;;;;30.77;11.88;;;;;;;0.50;78.81;98572.31;5301485;27;20057;-84
2024/01/13 05:50:34;;;;;;;31.65;12.07;;;;;;;0.36;79.49;98574.78;5302946;27;20056;-85
2024/01/13 05:53:04;;;;;;;28.70;11.23;;;;;;;0.48;79.37;98576.53;5303331;27;20061;-85
2024/01/13 05:55:32;;;;;;;32.67;12.30;;;;;;;0.26;79.35;98562.88;5283950;27;20791;-84
2024/01/13 05:58:00;;;;;;;32.67;11.80;;;;;;;0.42;79.51;98571.41;5303227;27;20057;-84
2024/01/13 06:00:27;;;;;;;29.70;10.70;;;;;;;0.31;80.70;98568.81;5303482;27;20376;-84
2024/01/13 06:02:58;;;;;;;33.58;13.30;;;;;;;0.23;80.63;98568.78;5304116;27;20033;-85
2024/01/13 06:05:27;;;;;;;29.35;11.52;;;;;;;0.51;79.85;98567.25;5303722;27;20049;-85
2024/01/13 06:07:57;;;;;;;29.42;12.00;;;;;;;0.19;80.69;98558.59;5304623;27;20684;-84
2024/01/13 06:10:27;;;;;;;33.30;12.15;;;;;;;0.43;79.97;98553.69;5302880;27;20042;-84
2024/01/13 06:12:54;;;;;;;33.70;12.10;;;;;;;0.42;79.08;98557.03;5303806;27;20111;-85
2024/01/13 06:15:21;;;;;;;31.67;11.90;;;;;;;0.53;78.64;98552.00;5304367;27;20400;-84
2024/01/13 06:17:54;;;;;;;28.40;10.98;;;;;;;0.03;80.34;98554.25;5304591;27;20052;-84
2024/01/13 06:20:24;;;;;;;34.42;12.73;;;;;;;0.29;79.89;98547.66;5302440;27;20053;-84
2024/01/13 06:22:52;;;;;;;28.00;12.07;;;;;;;0.22;80.37;98533.25;5304503;27;20026;-84
2024/01/13 06:25:20;;;;;;;33.25;11.73;;;;;;;0.23;80.49;98542.56;5304835;27;20069;-84
2024/01/13 06:27:48;;;;;;;31.27;11.38;;;;;;;0.52;78.86;98542.69;5304935;27;20823;-84
2024/01/13 06:30:16;;;;;;;31.33;12.30;;;;;;;0.50;79.44;98547.78;5303369;27;20109;-84
2024/01/13 06:32:45;;;;;;;28.95;10.88;;;;;;;0.53;78.56;98546.94;5302988;27;20074;-84
2024/01/13 06:35:14;;;;;;;33.25;11.98;;;;;;;0.05;80.70;98540.75;5303291;27;20075;-84
2024/01/13 06:37:42;;;;;;;32.55;12.23;;;;;;;0.21;80.89;98550.16;5305780;27;20055;-84
2024/01/13 06:40:10;;;;;;;31.90;12.75;;;;;;;0.40;79.84;98551.09;5304870;27;20108;-84
2024/01/13 06:42:39;;;;;;;29.35;12.32;;;;;;;0.28;80.42;98554.41;5304617;27;20434;-85
2024/01/13 06:45:08;;;;;;;32.92;11.70;;;;;;;0.35;80.37;98555.31;5305162;27;20081;-84
2024/01/13 06:47:37;;;;;;;29.60;11.18;;;;;;;0.17;81.34;98550.12;5304484;27;20106;-85
2024/01/13 06:50:06;;;;;;;31.00;12.15;;;;;;;0.27;80.71;98546.81;5305650;27;20051;-85
2024/01/13 06:52:34;;;;;;;29.77;12.02;;;;;;;0.38;80.53;98554.47;5304728;27;20108;-84
2024/01/13 06:55:04;;;;;;;29.15;12.57;;;;;;;0.29;80.89;98547.66;5304293;27;20083;-84
2024/01/13 06:57:33;;;;;;;33.20;12.88;;;;;;;0.38;80.99;98552.78;5304563;27;20053;-85
2024/01/13 07:00:00;;;;;;;34.88;12.48;;;;;;;0.13;81.96;98558.56;5305140;27;20045;-84
2024/01/13 07:02:29;;;;;;;32.55;12.77;;;;;;;-0.12;82.11;98549.91;5304307;27;20121;-84
2024/01/13 07:05:00;;;;;;;32.20;12.13;;;;;;;0.21;81.01;98567.06;5305218;27;20086;-85
2024/01/13 07:07:28;;;;;;;31.48;11.77;;;;;;;0.09;81.61;98562.75;5304971;27;20053;-84
2024/01/13 07:09:56;;;;;;;33.38;13.32;;;;;;;0.20;81.87;98560.28;5305626;27;20619;-84
2024/01/13 07:12:24;;;;;;;35.72;12.88;;;;;;;0.27;81.05;98565.41;5305591;27;20065;-85
2024/01/13 07:14:52;;;;;;;37.03;13.73;;;;;;;0.22;81.30;98559.47;5306070;27;20148;-84
2024/01/13 07:17:20;;;;;;;31.83;12.93;;;;;;;0.48;79.77;98567.22;5305919;27;20057;-84
2024/01/13 07:19:47;;;;;;;33.33;12.73;;;;;;;0.53;79.58;98565.59;5306318;27;20085;-84
2024/01/13 07:22:15;;;;;;;30.88;13.02;;;;;;;0.60;78.89;98566.44;5306484;27;20061;-84
2024/01/13 07:24:44;;;;;;;35.95;14.27;;;;;;;0.54;78.54;98563.91;5307022;27;20076;-85
2024/01/13 07:27:12;;;;;;;36.28;13.57;;;;;;;0.77;77.74;98564.00;5304974;27;20056;-84
2024/01/13 07:29:42;;;;;;;34.10;13.20;;;;;;;0.66;77.36;98561.41;5306044;27;20081;-84
2024/01/13 07:32:21;;;;;;;33.40;13.40;;;;;;;0.60;78.62;98563.91;5306486;27;20054;-84
2024/01/13 07:34:50;;;;;;;35.38;13.48;;;;;;;0.77;77.74;98569.09;5304674;27;20124;-84
2024/01/13 07:37:20;;;;;;;38.30;13.27;;;;;;;0.83;77.25;98572.47;5305804;27;20025;-84
2024/01/13 07:39:49;;;;;;;33.55;13.57;;;;;;;0.68;77.72;98564.81;5306018;27;20049;-84
2024/01/13 07:42:18;;;;;;;38.65;14.10;;;;;;;0.91;76.81;98572.53;5305079;27;20069;-84
2024/01/13 07:44:47;;;;;;;31.08;12.55;;;;;;;0.85;77.63;98570.81;5306639;27;20060;-84
2024/01/13 07:47:16;;;;;;;35.85;13.80;;;;;;;1.23;75.65;98557.38;5307209;27;20055;-84
2024/01/13 07:49:44;;;;;;;35.33;13.45;;;;;;;1.23;75.75;98565.00;5307809;27;20049;-84
2024/01/13 07:52:13;;;;;;;33.97;12.70;;;;;;;1.40;75.45;98560.81;5307944;27;20111;-85
2024/01/13 07:54:42;;;;;;;34.88;12.77;;;;;;;1.34;74.53;98558.25;5307170;27;20080;-85
2024/01/13 07:57:14;;;;;;;31.87;12.02;;;;;;;1.84;73.23;98562.56;5307565;27;20068;-84
2024/01/13 07:59:41;;;;;;;31.98;11.73;;;;;;;1.92;71.35;98558.31;5307771;27;20028;-85
2024/01/13 08:02:11;;;;;;;29.30;11.55;;;;;;;2.18;70.71;98552.34;5307540;27;20025;-85
2024/01/13 08:04:43;;;;;;;35.08;12.73;;;;;;;2.40;69.04;98555.72;5306593;27;20120;-85
2024/01/13 08:07:10;;;;;;;32.25;13.18;;;;;;;3.02;66.51;98552.13;5307304;27;20049;-85
2024/01/13 08:09:39;;;;;;;30.73;12.30;;;;;;;3.23;66.37;98544.34;5309416;27;20021;-85
2024/01/13 08:12:08;;;;;;;29.27;11.50;;;;;;;4.09;62.80;98543.72;5310172;27;20072;-85
2024/01/13 08:14:37;;;;;;;27.95;12.15;;;;;;;4.35;60.46;98527.28;5312423;27;20096;-85
2024/01/13 08:17:05;;;;;;;26.67;10.88;;;;;;;4.41;61.04;98544.28;5310282;27;20025;-84
2024/01/13 08:19:35;;;;;;;26.17;10.60;;;;;;;4.57;58.55;98535.59;5312650;27;20100;-85
2024/01/13 08:22:04;;;;;;;26.00;10.80;;;;;;;4.46;58.85;98542.50;5310904;27;20026;-85
2024/01/13 08:24:31;;;;;;;28.65;11.23;;;;;;;3.53;62.10;98542.47;5308597;27;20068;-84
2024/01/13 08:27:00;;;;;;;26.30;10.73;;;;;;;3.78;61.03;98536.31;5308458;27;20035;-84
2024/01/13 08:29:29;;;;;;;24.58;10.20;;;;;;;4.04;60.49;98536.97;5309489;27;20056;-84
2024/01/13 08:31:56;;;;;;;29.42;11.45;;;;;;;4.00;60.41;98545.50;5308991;27;20026;-84
2024/01/13 08:34:24;;;;;;;28.55;11.40;;;;;;;4.13;59.35;98537.72;5309389;27;20068;-84
2024/01/13 08:36:52;;;;;;;27.05;10.10;;;;;;;4.33;58.31;98544.34;5310100;27;20025;-84
2024/01/13 08:39:20;;;;;;;29.60;10.60;;;;;;;4.38;58.08;98546.03;5310415;27;20636;-84
2024/01/13 08:41:48;;;;;;;29.45;10.50;;;;;;;4.43;58.52;98546.81;5311658;27;20022;-84
2024/01/13 08:44:17;;;;;;;28.77;11.35;;;;;;;5.13;56.47;98551.97;5312966;27;20053;-85
2024/01/13 08:46:44;;;;;;;27.30;10.65;;;;;;;5.46;56.13;98549.81;5311085;27;20128;-84
2024/01/13 08:49:14;;;;;;;26.00;9.55;;;;;;;5.43;54.20;98542.19;5311454;27;20689;-84
2024/01/13 08:51:42;;;;;;;27.00;10.10;;;;;;;5.60;54.54;98545.31;5310245;27;20800;-84
2024/01/13 08:54:10;;;;;;;25.77;10.15;;;;;;;5.92;54.28;98549.12;5311215;27;20063;-84
2024/01/13 08:56:41;;;;;;;27.25;11.57;;;;;;;5.79;54.11;98546.75;5312134;27;20025;-84
2024/01/13 08:59:09;;;;;;;25.52;10.35;;;;;;;5.61;53.76;98544.44;5313229;27;20029;-84
2024/01/13 09:01:37;;;;;;;25.75;10.32;;;;;;;6.11;52.10;98544.56;5314469;27;20073;-84
2024/01/13 09:04:10;;;;;;;26.42;9.73;;;;;;;5.27;54.58;98533.84;5314283;27;20065;-84
2024/01/13 09:06:40;;;;;;;21.95;8.88;;;;;;;4.92;55.69;98539.44;5311935;27;20059;-83
2024/01/13 09:09:09;;;;;;;24.73;8.88;;;;;;;4.46;57.60;98545.06;5310915;27;20622;-84
2024/01/13 09:11:38;;;;;;;24.73;9.88;;;;;;;4.17;58.56;98535.16;5309576;27;20057;-84
2024/01/13 09:14:11;;;;;;;20.67;8.60;;;;;;;3.45;60.81;98535.72;5310885;27;20410;-84
2024/01/13 09:16:40;;;;;;;20.12;7.75;;;;;;;3.76;60.61;98523.59;5308756;27;20061;-84
2024/01/13 09:19:09;;;;;;;23.15;8.35;;;;;;;3.92;60.16;98531.09;5308481;27;20049;-84
2024/01/13 09:21:38;;;;;;;22.52;7.93;;;;;;;3.29;62.95;98533.25;5305473;27;20062;-84
2024/01/13 09:24:11;;;;;;;20.88;7.82;;;;;;;2.88;64.50;98516.50;5306571;27;20412;-84
2024/01/13 09:26:42;;;;;;;22.27;7.62;;;;;;;2.96;64.46;98508.78;5306829;27;20025;-84
2024/01/13 09:29:15;;;;;;;19.90;7.95;;;;;;;3.12;62.89;98511.25;5307486;27;20099;-85
2024/01/13 09:31:45;;;;;;;21.12;7.70;;;;;;;2.47;63.71;98493.72;5306738;27;20037;-84
2024/01/13 09:34:14;;;;;;;21.52;8.93;;;;;;;1.89;67.29;98496.38;5307623;27;20062;-84
2024/01/13 09:36:47;;;;;;;22.55;8.40;;;;;;;2.13;68.12;98492.97;5310219;27;20035;-84
2024/01/13 09:39:20;;;;;;;22.00;8.50;;;;;;;3.01;65.05;98500.28;5310966;27;20029;-84
2024/01/13 09:41:52;;;;;;;21.65;7.87;;;;;;;3.12;63.73;98495.97;5311389;27;20184;-84
2024/01/13 09:44:28;;;;;;;23.80;8.60;;;;;;;3.47;61.25;98490.63;5310053;27;20053;-84
2024/01/13 09:46:58;;;;;;;22.83;7.30;;;;;;;3.87;60.26;98497.13;5311287;27;20029;-85
2024/01/13 09:49:29;;;;;;;20.05;7.95;;;;;;;4.72;57.44;98503.88;5317226;27;20030;-84
2024/01/13 09:52:03;;;;;;;21.75;8.80;;;;;;;5.62;55.94;98501.78;5320524;27;20029;-84
2024/01/13 09:54:30;;;;;;;21.92;8.23;;;;;;;5.81;53.85;98504.03;5319990;27;20025;-84
2024/01/13 09:57:08;;;;;;;19.87;7.72;;;;;;;6.44;52.09;98507.22;5319921;27;20022;-84
2024/01/13 09:59:38;;;;;;;22.17;8.07;;;;;;;6.31;51.54;98507.47;5320308;27;20049;-84
2024/01/13 10:02:11;;;;;;;20.75;7.87;;;;;;;6.39;50.79;98497.09;5319136;27;20049;-84
2024/01/13 10:04:40;;;;;;;20.52;7.82;;;;;;;5.57;51.75;98494.19;5319974;27;20036;-83
2024/01/13 10:07:11;;;;;;;21.90;9.13;;;;;;;5.18;52.51;98481.09;5319366;27;20025;-84
2024/01/13 10:09:54;;;;;;;20.40;8.05;;;;;;;4.80;54.14;98489.31;5319542;27;20033;-83
2024/01/13 10:12:23;;;;;;;22.37;8.45;;;;;;;4.62;55.61;98476.75;5320360;27;20026;-84
2024/01/13 10:14:50;;;;;;;22.92;10.15;;;;;;;4.38;55.68;98477.88;5319832;27;20074;-85
2024/01/13 10:17:21;;;;;;;24.20;9.07;;;;;;;4.52;56.24;98472.59;5319257;27;20140;-84
2024/01/13 10:19:50;;;;;;;23.58;8.93;;;;;;;5.53;53.54;98469.53;5319868;27;20025;-85
2024/01/13 10:22:22;;;;;;;22.02;8.07;;;;;;;5.75;52.17;98457.22;5317566;27;20078;-85
2024/01/13 10:24:50;;;;;;;22.08;8.30;;;;;;;5.54;52.48;98468.66;5319531;27;20033;-84
2024/01/13 10:27:36;;;;;;;22.05;8.30;;;;;;;5.84;51.63;98463.88;5319337;27;20056;-84
2024/01/13 10:30:10;;;;;;;20.88;8.68;;;;;;;5.90;51.45;98454.41;5319311;27;20026;-84
2024/01/13 10:32:39;;;;;;;22.30;8.02;;;;;;;6.05;51.18;98458.41;5318729;27;20030;-84
2024/01/13 10:35:08;;;;;;;22.52;8.45;;;;;;;5.82;51.35;98451.94;5319419;27;20073;-85
2024/01/13 10:37:35;;;;;;;20.62;8.02;;;;;;;6.55;50.74;98441.22;5316922;27;20021;-84
2024/01/13 10:40:03;;;;;;;19.00;8.15;;;;;;;7.18;47.66;98446.69;5318755;27;20029;-85
2024/01/13 10:42:36;;;;;;;22.65;8.40;;;;;;;6.39;48.93;98440.69;5317452;27;20081;-85
2024/01/13 10:45:12;;;;;;;23.25;8.50;;;;;;;5.76;51.06;98433.28;5320013;27;20034;-84
2024/01/13 10:47:42;;;;;;;26.42;8.48;;;;;;;5.69;50.21;98431.69;5318613;27;20048;-85
2024/01/13 10:50:11;;;;;;;20.70;8.05;;;;;;;5.66;50.99;98434.31;5318693;27;20029;-85
2024/01/13 10:52:43;;;;;;;21.90;8.05;;;;;;;5.96;50.16;98427.84;5319080;27;20048;-85
2024/01/13 10:55:10;;;;;;;21.12;7.90;;;;;;;5.74;50.67;98417.97;5319831;27;20052;-85
2024/01/13 10:57:39;;;;;;;23.42;8.77;;;;;;;5.66;51.07;98418.97;5319516;27;20021;-85
2024/01/13 11:00:10;;;;;;;20.48;8.75;;;;;;;5.92;50.31;98410.84;5318495;27;20053;-85
2024/01/13 11:02:39;;;;;;;22.30;8.48;;;;;;;5.39;50.91;98404.91;5318229;27;20037;-85
2024/01/13 11:05:10;;;;;;;22.35;8.45;;;;;;;6.47;49.18;98405.47;5318319;27;20018;-85
2024/01/13 11:07:38;;;;;;;22.83;8.75;;;;;;;7.01;47.79;98404.31;5317566;27;20041;-85
2024/01/13 11:10:15;;;;;;;24.17;9.00;;;;;;;6.62;48.01;98410.31;5318089;27;20021;-85
2024/01/13 11:12:51;;;;;;;20.45;8.23;;;;;;;5.91;50.21;98404.88;5319078;27;20037;-85
2024/01/13 11:15:35;;;;;;;20.95;8.52;;;;;;;6.23;49.64;98405.97;5318583;27;20045;-86
2024/01/13 11:18:04;;;;;;;21.23;8.85;;;;;;;5.90;50.28;98408.31;5319084;27;20115;-86
2024/01/13 11:21:02;;;;;;;22.45;8.43;;;;;;;5.50;51.53;98391.03;5318190;27;20025;-85
2024/01/13 11:23:37;;;;;;;23.02;8.63;;;;;;;6.43;48.60;98380.78;5316695;27;20057;-86
2024/01/13 11:26:08;;;;;;;21.37;8.38;;;;;;;6.34;49.77;98378.41;5318316;27;20072;-86
2024/01/13 11:28:51;;;;;;;20.48;8.45;;;;;;;6.71;48.89;98373.38;5316635;27;20033;-86
2024/01/13 11:31:39;;;;;;;21.77;9.15;;;;;;;6.86;47.24;98382.44;5316873;27;20041;-86
2024/01/13 11:34:16;;;;;;;21.25;8.52;;;;;;;6.96;47.46;98382.19;5315174;27;20111;-85
2024/01/13 11:36:52;;;;;;;26.37;9.63;;;;;;;7.38;45.90;98384.63;5317094;27;20801;-86
2024/01/13 11:39:21;;;;;;;24.87;9.65;;;;;;;6.97;46.33;98365.06;5317999;27;20026;-85